createdAt,value
2019-01-23T00:38:50.456Z,28.00
2019-01-23T00:41:38.493Z,29.50
2019-01-23T00:44:26.697Z,28.00
2019-01-23T00:47:17.089Z,27.97
2019-01-23T00:50:05.308Z,26.83
2019-01-23T00:52:34.392Z,25.83
2019-01-23T00:55:22.549Z,26.87
2019-01-23T00:58:11.184Z,27.00
2019-01-23T01:00:59.213Z,25.83
2019-01-23T01:03:47.252Z,27.83
2019-01-23T01:06:35.245Z,25.47
2019-01-23T01:09:06.126Z,26.27
2019-01-23T01:11:54.279Z,27.13
2019-01-23T01:17:13.918Z,26.00
2019-01-23T01:19:44.582Z,28.13
2019-01-23T01:22:13.475Z,25.97
2019-01-23T01:25:01.485Z,26.20
2019-01-23T01:27:49.577Z,26.67
2019-01-23T01:30:37.592Z,25.73
2019-01-23T01:36:16.482Z,24.07
2019-01-23T01:41:58.738Z,26.00
2019-01-23T01:44:27.763Z,25.77
2019-01-23T01:46:57.169Z,25.17
2019-01-23T01:49:45.635Z,25.60
2019-01-23T01:52:33.627Z,27.50
2019-01-23T01:55:22.154Z,28.60
2019-01-23T02:01:06.370Z,29.40
2019-01-23T02:03:54.311Z,28.57
2019-01-23T02:06:42.323Z,28.43
2019-01-23T02:09:35.436Z,29.80
2019-01-23T02:12:21.758Z,30.80
2019-01-23T02:14:50.702Z,28.13
2019-01-23T02:17:38.892Z,28.23
2019-01-23T02:20:27.393Z,30.27
2019-01-23T02:23:18.093Z,29.67
2019-01-23T02:26:06.418Z,28.33
2019-01-23T02:28:57.240Z,28.63
2019-01-23T02:34:52.524Z,27.37
2019-01-23T02:37:40.617Z,27.57
2019-01-23T02:40:28.692Z,28.60
2019-01-23T02:58:08.476Z,27.17
2019-01-23T03:00:37.608Z,26.60
2019-01-23T03:03:06.685Z,27.90
2019-01-23T03:05:54.993Z,26.03
2019-01-23T03:11:34.346Z,26.83
2019-01-23T03:14:05.714Z,25.43
2019-01-23T03:16:35.554Z,26.10
2019-01-23T03:19:05.016Z,23.67
2019-01-23T03:21:53.133Z,23.77
2019-01-23T03:24:22.566Z,23.53
2019-01-23T03:30:01.925Z,22.73
2019-01-23T03:32:49.995Z,22.50
2019-01-23T03:35:38.049Z,22.23
2019-01-23T03:38:26.034Z,20.30
2019-01-23T03:41:14.307Z,21.03
2019-01-23T03:44:02.746Z,22.03
2019-01-23T03:46:50.989Z,21.63
2019-01-23T03:49:39.141Z,21.23
2019-01-23T03:52:27.220Z,20.73
2019-01-23T03:55:15.250Z,22.37
2019-01-23T03:58:06.258Z,21.63
2019-01-23T04:00:35.185Z,21.83
2019-01-23T04:03:23.159Z,21.67
2019-01-23T04:06:10.965Z,22.93
2019-01-23T04:08:59.360Z,22.00
2019-01-23T04:11:47.391Z,23.57
2019-01-23T04:14:35.511Z,22.77
2019-01-23T04:17:23.358Z,23.37
2019-01-23T04:20:11.336Z,22.77
2019-01-23T04:22:59.152Z,21.93
2019-01-23T04:25:49.115Z,22.13
2019-01-23T04:28:37.226Z,21.30
2019-01-23T04:31:25.256Z,23.20
2019-01-23T04:34:13.116Z,23.43
2019-01-23T04:39:59.100Z,22.53
2019-01-23T04:42:46.942Z,24.07
2019-01-23T04:45:36.703Z,23.70
2019-01-23T04:48:24.667Z,24.50
2019-01-23T04:51:31.585Z,24.07
2019-01-23T04:54:19.627Z,25.57
2019-01-23T04:57:07.763Z,26.50
2019-01-23T04:59:55.589Z,26.97
2019-01-23T05:11:29.114Z,21.80
2019-01-23T05:14:17.098Z,22.00
2019-01-23T05:17:05.547Z,22.93
2019-01-23T05:19:53.530Z,23.17
2019-01-23T05:22:41.744Z,24.63
2019-01-23T05:25:29.927Z,25.13
2019-01-23T05:28:20.591Z,24.70
2019-01-23T05:31:22.183Z,25.00
2019-01-23T05:33:58.216Z,24.63
2019-01-23T05:36:46.106Z,24.93
2019-01-23T05:39:34.043Z,24.53
2019-01-23T05:42:22.059Z,25.63
2019-01-23T05:45:10.640Z,24.53
2019-01-23T05:47:59.718Z,25.40
2019-01-23T05:50:47.843Z,26.13
2019-01-23T05:53:35.775Z,25.77
2019-01-23T05:56:23.720Z,25.83
2019-01-23T05:59:11.716Z,26.50
2019-01-23T06:01:59.802Z,24.27
2019-01-23T06:04:50.217Z,25.53
2019-01-23T06:07:38.152Z,23.83
2019-01-23T06:22:30.417Z,23.63
2019-01-23T06:25:18.521Z,22.87
2019-01-23T06:27:50.480Z,22.93
2019-01-23T06:30:21.160Z,21.90
2019-01-23T06:32:50.300Z,23.73
2019-01-23T06:35:38.179Z,21.97
2019-01-23T06:38:07.072Z,22.30
2019-01-23T06:40:56.739Z,26.07
2019-01-23T06:43:25.643Z,25.53
2019-01-23T06:45:59.803Z,25.03
2019-01-23T06:48:28.856Z,26.80
2019-01-23T06:50:58.971Z,25.53
2019-01-23T06:53:28.240Z,27.70
2019-01-23T06:55:57.401Z,27.07
2019-01-23T06:58:26.305Z,27.73
2019-01-23T07:00:55.322Z,28.47
2019-01-23T07:03:24.500Z,29.10
2019-01-23T07:06:13.523Z,29.93
2019-01-23T07:09:01.441Z,29.53
2019-01-23T07:11:49.314Z,30.83
2019-01-23T07:14:37.526Z,31.53
2019-01-23T07:20:16.738Z,29.83
2019-01-23T07:23:05.157Z,31.20
2019-01-23T08:08:17.429Z,31.07
2019-01-23T08:11:05.214Z,33.30
2019-01-23T08:13:54.018Z,32.80
2019-01-23T08:16:42.003Z,32.83
2019-01-23T08:19:29.980Z,34.00
2019-01-23T08:22:18.024Z,35.37
2019-01-23T08:25:07.458Z,34.33
2019-01-23T08:27:58.615Z,33.77
2019-01-23T08:33:39.141Z,34.80
2019-01-23T08:37:04.726Z,32.87
2019-01-23T08:43:30.881Z,34.40
2019-01-23T08:50:51.688Z,34.20
2019-01-23T08:53:23.295Z,36.57
2019-01-23T08:55:55.128Z,35.07
2019-01-23T09:01:06.531Z,35.07
2019-01-23T09:03:36.083Z,35.03
2019-01-23T09:06:05.569Z,34.07
2019-01-23T09:08:37.746Z,34.97
2019-01-23T09:11:17.373Z,34.93
2019-01-23T09:13:44.374Z,34.90
2019-01-23T09:16:32.764Z,34.30
2019-01-23T09:19:02.607Z,35.27
2019-01-23T09:21:32.038Z,33.57
2019-01-23T09:24:04.156Z,34.70
2019-01-23T09:26:34.637Z,35.47
2019-01-23T09:29:07.828Z,35.30
2019-01-23T09:31:59.351Z,34.83
2019-01-23T09:34:47.907Z,35.90
2019-01-23T09:37:54.513Z,34.83
2019-01-23T09:40:52.076Z,33.50
2019-01-23T09:43:48.929Z,34.77
2019-01-23T09:46:36.029Z,32.73
2019-01-23T09:49:29.151Z,33.57
2019-01-23T09:52:22.566Z,33.47
2019-01-23T10:09:51.495Z,33.53
2019-01-23T10:18:26.896Z,32.77
2019-01-23T10:20:57.655Z,32.60
2019-01-23T10:23:26.486Z,33.77
2019-01-23T10:25:55.184Z,33.97
2019-01-23T10:28:43.107Z,34.07
2019-01-23T10:31:31.278Z,34.13
2019-01-23T10:34:19.254Z,34.00
2019-01-23T10:39:57.826Z,35.53
2019-01-23T10:42:45.663Z,35.03
2019-01-23T10:48:38.065Z,33.80
2019-01-23T11:00:07.709Z,32.77
2019-01-23T11:02:36.360Z,34.23
2019-01-23T11:05:26.365Z,34.30
2019-01-23T11:08:14.190Z,34.33
2019-01-23T11:11:02.096Z,32.27
2019-01-23T11:13:30.818Z,33.23
2019-01-23T11:19:12.731Z,34.53
2019-01-23T11:48:29.148Z,31.20
2019-01-23T12:05:41.248Z,26.43
2019-01-23T12:11:13.326Z,24.13
2019-01-23T12:16:43.424Z,25.07
2019-01-23T12:38:08.692Z,15.43
2019-01-23T12:40:59.042Z,17.20
2019-01-23T12:52:39.718Z,19.43
2019-01-23T14:06:11.352Z,24.80
2019-01-23T14:08:40.123Z,24.33
2019-01-23T14:11:28.042Z,23.37
2019-01-23T14:14:15.904Z,23.40
2019-01-23T14:16:44.972Z,24.00
2019-01-23T14:19:13.753Z,24.63
2019-01-23T14:22:02.104Z,23.87
2019-01-23T14:24:49.960Z,25.30
2019-01-23T14:27:37.823Z,24.30
2019-01-23T14:30:25.745Z,25.43
2019-01-23T14:33:13.770Z,24.70
2019-01-23T14:36:02.170Z,26.67
2019-01-23T14:38:50.208Z,26.37
2019-01-23T14:41:38.209Z,27.10
2019-01-23T14:44:26.289Z,25.97
2019-01-23T14:47:14.326Z,27.37
2019-01-23T14:50:02.267Z,25.13
2019-01-23T14:52:31.059Z,28.10
2019-01-23T14:55:19.069Z,27.40
2019-01-23T14:57:48.065Z,29.70
2019-01-23T15:03:14.311Z,28.10
2019-01-23T15:06:02.300Z,27.53
2019-01-23T15:15:03.251Z,26.50
2019-01-23T15:33:02.996Z,29.10
2019-01-23T15:35:31.924Z,30.57
2019-01-23T15:38:02.848Z,30.37
2019-01-23T15:40:33.045Z,30.47
2019-01-23T15:43:01.874Z,30.03
2019-01-23T15:45:49.875Z,30.60
2019-01-23T15:48:18.952Z,29.23
2019-01-23T15:51:10.128Z,30.60
2019-01-23T15:54:15.361Z,31.63
2019-01-23T15:56:29.015Z,29.13
2019-01-23T15:59:16.948Z,31.40
2019-01-23T16:02:04.897Z,30.57
2019-01-23T16:04:53.016Z,31.93
2019-01-23T16:10:34.080Z,30.47
2019-01-23T16:13:22.528Z,30.23
2019-01-23T16:16:13.745Z,28.90
2019-01-23T17:20:02.663Z,31.60
2019-01-23T17:22:50.539Z,31.43
2019-01-23T17:25:52.450Z,33.30
2019-01-23T17:28:28.052Z,31.73
2019-01-23T17:31:16.036Z,32.00
2019-01-23T17:34:04.170Z,30.43
2019-01-23T17:36:52.106Z,30.83
2019-01-23T17:42:48.479Z,29.87
2019-01-23T17:45:36.250Z,29.50
2019-01-23T17:48:24.091Z,29.90
2019-01-23T17:51:11.903Z,27.67
2019-01-23T17:53:59.715Z,29.70
2019-01-23T17:56:47.554Z,27.90
2019-01-23T17:59:35.581Z,27.00
2019-01-23T18:02:27.107Z,27.67
2019-01-23T18:05:15.027Z,27.37
2019-01-23T18:08:02.894Z,24.17
2019-01-23T18:13:52.131Z,23.67
2019-01-23T18:16:39.999Z,24.03
2019-01-23T19:41:59.745Z,20.43
2019-01-23T19:47:40.005Z,18.90
2019-01-23T19:50:47.807Z,19.90
2019-01-23T20:01:48.570Z,20.20
2019-01-23T20:19:26.807Z,21.77
2019-01-23T20:22:08.748Z,21.90
2019-01-23T20:25:01.653Z,23.10
2019-01-23T20:27:54.716Z,22.33
2019-01-23T20:30:35.107Z,22.67
2019-01-23T20:33:35.434Z,21.83
2019-01-23T20:47:36.714Z,22.93
2019-01-23T21:15:06.496Z,21.37
2019-01-23T21:24:31.072Z,20.63
2019-01-23T21:27:08.958Z,20.83
2019-01-23T21:30:21.629Z,20.30
2019-01-23T21:39:42.963Z,23.60
2019-01-23T21:42:31.153Z,22.87
2019-01-23T21:48:15.024Z,22.63
2019-01-23T21:51:32.872Z,22.17
2019-01-23T21:53:53.426Z,22.77
2019-01-23T21:59:51.888Z,21.97
2019-01-23T22:02:39.920Z,22.30
2019-01-23T22:05:27.889Z,22.97
2019-01-23T22:08:17.912Z,23.03
2019-01-23T22:11:05.770Z,22.23
2019-01-23T22:14:12.657Z,21.27
2019-01-23T22:19:44.941Z,22.20
2019-01-23T22:22:20.214Z,20.63
2019-01-23T22:24:49.011Z,21.57
2019-01-23T22:27:36.913Z,21.70
2019-01-23T22:33:02.527Z,22.43
2019-01-23T22:35:31.323Z,21.87
2019-01-23T22:38:19.237Z,22.47
2019-01-23T22:41:07.443Z,20.73
2019-01-23T22:43:36.289Z,22.67
2019-01-23T22:46:04.964Z,23.47
2019-01-23T22:48:53.117Z,22.53
2019-01-23T22:51:41.412Z,21.63
2019-01-23T22:54:29.450Z,20.47
2019-01-23T23:00:25.863Z,22.43
2019-01-23T23:03:13.772Z,22.43
2019-01-23T23:06:01.880Z,22.80
2019-01-23T23:11:56.799Z,23.20
2019-01-23T23:14:44.657Z,21.43
2019-01-23T23:17:32.718Z,22.07
2019-01-23T23:20:20.652Z,21.93
2019-01-23T23:28:56.565Z,22.33
2019-01-23T23:31:25.169Z,22.37
2019-01-23T23:34:12.983Z,23.70
2019-01-23T23:37:00.886Z,24.53
2019-01-23T23:39:48.728Z,23.37
2019-01-23T23:42:36.500Z,23.87
2019-01-23T23:45:24.482Z,23.97
2019-01-23T23:48:12.375Z,23.77
2019-01-23T23:51:00.379Z,23.70
2019-01-23T23:53:48.263Z,23.40
2019-01-23T23:56:36.536Z,24.13
2019-01-23T23:59:24.407Z,22.73
